Time;durP1;ratioP1;P1;durP2;ratioP2;P2;SDS_P1;SDS_P2;PMS_P1;PMS_P2;Temp;Humidity;BMP_temperature;BMP_pressure;BME280_temperature;BME280_humidity;BME280_pressure;Samples;Min_cycle;Max_cycle;Signal;HPM_P1;HPM_P2
2022/03/11 00:01:53;;;;;;;8.07;4.17;;;7.70;82.80;;;;;;7387830;19;20145;-73
2022/03/11 00:04:19;;;;;;;7.50;4.20;;;8.00;83.20;;;;;;7391743;19;20154;-72
2022/03/11 00:06:45;;;;;;;9.33;4.70;;;7.80;82.90;;;;;;7387647;19;20134;-74
2022/03/11 00:09:10;;;;;;;6.60;4.10;;;7.50;83.70;;;;;;7391195;19;20146;-73
2022/03/11 00:11:37;;;;;;;7.77;4.37;;;7.60;84.00;;;;;;7388907;19;20144;-73
2022/03/11 00:14:02;;;;;;;6.63;4.20;;;7.90;84.00;;;;;;7387911;19;20453;-73
2022/03/11 00:16:28;;;;;;;7.90;4.20;;;7.90;83.40;;;;;;7388322;19;20143;-73
2022/03/11 00:18:54;;;;;;;6.57;4.13;;;7.80;84.00;;;;;;7394941;19;20126;-73
2022/03/11 00:21:20;;;;;;;7.53;4.63;;;7.70;84.50;;;;;;7387482;19;20131;-73
2022/03/11 00:23:45;;;;;;;7.07;4.33;;;7.30;85.10;;;;;;7387488;19;20165;-74
2022/03/11 00:26:11;;;;;;;7.80;4.27;;;7.20;85.80;;;;;;7388733;19;20137;-73
2022/03/11 00:28:40;;;;;;;7.20;4.27;;;7.20;85.90;;;;;;7385297;19;20239;-72
2022/03/11 00:31:06;;;;;;;7.87;4.47;;;7.30;85.90;;;;;;7387639;19;20127;-72
2022/03/11 00:33:32;;;;;;;6.40;4.20;;;7.30;86.00;;;;;;7389517;19;20146;-72
2022/03/11 00:35:58;;;;;;;6.67;4.60;;;7.40;86.30;;;;;;7389857;19;20122;-72
2022/03/11 00:38:25;;;;;;;6.97;4.53;;;7.40;86.10;;;;;;7389727;19;20134;-73
2022/03/11 00:40:55;;;;;;;6.90;4.10;;;7.40;86.20;;;;;;7386871;19;20138;-75
2022/03/11 00:43:23;;;;;;;8.73;4.07;;;7.30;86.30;;;;;;7386786;19;20426;-74
2022/03/11 00:45:49;;;;;;;8.53;4.67;;;7.60;86.50;;;;;;7383756;19;20150;-74
2022/03/11 00:48:14;;;;;;;8.57;5.33;;;7.60;86.20;;;;;;7388114;19;20143;-73
2022/03/11 00:50:40;;;;;;;7.60;4.63;;;7.50;86.30;;;;;;7386892;19;20575;-73
2022/03/11 00:53:06;;;;;;;7.60;4.60;;;7.20;87.10;;;;;;7386074;19;20123;-74
2022/03/11 00:55:33;;;;;;;6.23;4.20;;;7.30;87.50;;;;;;7388565;19;20146;-73
2022/03/11 00:57:58;;;;;;;8.23;5.00;;;7.40;87.40;;;;;;7391847;19;20150;-72
2022/03/11 01:00:24;;;;;;;7.20;4.57;;;7.40;87.40;;;;;;7387989;19;20587;-74
2022/03/11 01:02:50;;;;;;;8.07;5.07;;;7.40;87.20;;;;;;7389733;19;20146;-73
2022/03/11 01:05:16;;;;;;;7.50;4.53;;;7.20;87.90;;;;;;7386122;19;20146;-73
2022/03/11 01:07:42;;;;;;;11.87;5.03;;;7.00;88.80;;;;;;7386926;19;20201;-72
2022/03/11 01:10:08;;;;;;;8.13;5.73;;;6.90;89.40;;;;;;7388031;19;20134;-71
2022/03/11 01:12:34;;;;;;;7.60;4.80;;;7.00;89.20;;;;;;7386019;19;20139;-73
2022/03/11 01:15:01;;;;;;;8.03;5.47;;;7.00;89.30;;;;;;7385796;19;20134;-73
2022/03/11 01:17:26;;;;;;;8.50;4.73;;;7.00;89.50;;;;;;7388560;19;20198;-73
2022/03/11 01:19:53;;;;;;;7.03;4.90;;;6.80;90.00;;;;;;7388326;19;20699;-72
2022/03/11 01:22:19;;;;;;;7.37;4.87;;;7.10;89.80;;;;;;7388278;19;20217;-72
2022/03/11 01:24:45;;;;;;;8.57;5.20;;;6.90;90.10;;;;;;7386480;19;20594;-73
2022/03/11 01:27:10;;;;;;;9.37;5.17;;;7.00;90.10;;;;;;7385233;19;20165;-73
2022/03/11 01:29:36;;;;;;;7.50;5.30;;;6.80;90.10;;;;;;7383509;19;20174;-73
2022/03/11 01:32:02;;;;;;;9.33;5.67;;;6.90;90.40;;;;;;7385978;19;20218;-73
2022/03/11 01:34:29;;;;;;;9.00;5.80;;;7.00;90.50;;;;;;7387361;19;20131;-72
2022/03/11 01:36:55;;;;;;;9.13;5.90;;;7.20;90.30;;;;;;7385206;19;20156;-72
2022/03/11 01:39:20;;;;;;;9.50;5.97;;;7.30;90.00;;;;;;7388762;19;20131;-73
2022/03/11 01:41:46;;;;;;;8.23;5.37;;;7.30;90.10;;;;;;7390338;19;20131;-72
2022/03/11 01:44:12;;;;;;;11.23;6.07;;;7.10;90.40;;;;;;7390818;19;20131;-73
2022/03/11 01:46:38;;;;;;;9.60;5.57;;;6.80;90.70;;;;;;7384849;19;20194;-73
2022/03/11 01:49:07;;;;;;;8.83;5.90;;;6.90;91.00;;;;;;7389395;19;20210;-73
2022/03/11 01:51:36;;;;;;;11.27;6.43;;;7.20;90.70;;;;;;7384925;19;20131;-73
2022/03/11 01:54:02;;;;;;;10.57;6.50;;;7.20;90.70;;;;;;7384520;19;20214;-74
2022/03/11 01:56:28;;;;;;;9.17;5.93;;;6.80;91.10;;;;;;7384883;19;20143;-72
2022/03/11 01:58:55;;;;;;;10.73;6.10;;;6.80;91.30;;;;;;7384553;19;20127;-72
2022/03/11 02:01:22;;;;;;;9.53;6.10;;;6.90;91.10;;;;;;7384743;19;20135;-74
2022/03/11 02:03:49;;;;;;;11.40;6.87;;;6.90;91.10;;;;;;7388989;19;20701;-72
2022/03/11 02:06:16;;;;;;;11.50;6.13;;;7.00;91.10;;;;;;7385271;19;20471;-74
2022/03/11 02:08:42;;;;;;;11.90;6.87;;;6.90;91.20;;;;;;7384602;19;20593;-72
2022/03/11 02:11:10;;;;;;;9.30;6.10;;;7.00;91.30;;;;;;7385168;19;20517;-76
2022/03/11 02:13:46;;;;;;;9.53;6.20;;;7.10;91.30;;;;;;7386248;19;20142;-74
2022/03/11 02:16:17;;;;;;;10.77;7.10;;;7.10;91.10;;;;;;7383291;19;20146;-73
2022/03/11 02:18:43;;;;;;;12.83;6.47;;;7.10;91.20;;;;;;7384070;19;20151;-74
2022/03/11 02:21:09;;;;;;;12.23;7.23;;;6.80;91.20;;;;;;7384450;19;20168;-74
2022/03/11 02:23:43;;;;;;;12.07;6.53;;;6.80;91.70;;;;;;7387016;19;20161;-73
2022/03/11 02:26:09;;;;;;;11.10;6.97;;;6.90;91.70;;;;;;7382968;19;20319;-72
2022/03/11 02:28:35;;;;;;;11.40;6.93;;;7.00;91.70;;;;;;7381435;19;20186;-73
2022/03/11 02:31:01;;;;;;;11.83;7.37;;;7.00;91.60;;;;;;7383249;19;20123;-72
2022/03/11 02:33:28;;;;;;;9.83;6.43;;;6.80;91.60;;;;;;7383903;19;20830;-73
2022/03/11 02:35:54;;;;;;;13.80;7.60;;;6.60;92.20;;;;;;7383616;19;20154;-73
2022/03/11 02:38:20;;;;;;;11.93;6.90;;;6.60;92.30;;;;;;7385987;19;20176;-73
2022/03/11 02:40:45;;;;;;;14.63;7.37;;;6.70;92.40;;;;;;7385923;19;20135;-72
2022/03/11 02:43:12;;;;;;;11.93;7.20;;;6.90;92.20;;;;;;7384876;19;20147;-74
2022/03/11 02:45:38;;;;;;;9.33;6.53;;;7.00;92.10;;;;;;7381402;19;20190;-73
2022/03/11 02:48:05;;;;;;;11.03;7.83;;;7.00;92.00;;;;;;7384203;19;20155;-73
2022/03/11 02:50:31;;;;;;;13.30;7.70;;;7.20;91.70;;;;;;7382647;19;20143;-72
2022/03/11 02:52:56;;;;;;;11.37;7.70;;;7.30;91.50;;;;;;7387246;19;20146;-72
2022/03/11 02:55:22;;;;;;;11.97;7.37;;;7.10;91.70;;;;;;7382675;19;20162;-73
2022/03/11 02:57:48;;;;;;;14.00;7.90;;;7.00;91.80;;;;;;7382192;19;20164;-72
2022/03/11 03:00:14;;;;;;;12.77;7.83;;;7.10;91.80;;;;;;7386549;19;20160;-73
2022/03/11 03:02:40;;;;;;;11.57;7.23;;;7.20;91.60;;;;;;7391907;19;20145;-72
2022/03/11 03:05:06;;;;;;;13.37;7.67;;;7.10;91.90;;;;;;7389766;19;20131;-73
2022/03/11 03:07:32;;;;;;;11.83;8.13;;;6.90;92.00;;;;;;7389500;19;20142;-71
2022/03/11 03:09:58;;;;;;;15.90;8.27;;;7.00;92.00;;;;;;7394335;19;20147;-74
2022/03/11 03:12:25;;;;;;;15.27;8.50;;;7.10;91.80;;;;;;7389784;19;20150;-72
2022/03/11 03:14:52;;;;;;;15.83;8.53;;;7.10;91.70;;;;;;7389391;19;20133;-72
2022/03/11 03:17:21;;;;;;;14.23;8.10;;;7.20;91.60;;;;;;7389217;19;20433;-74
2022/03/11 03:19:50;;;;;;;15.33;9.27;;;7.10;91.50;;;;;;7391284;19;20122;-73
2022/03/11 03:22:16;;;;;;;14.73;9.20;;;7.10;91.70;;;;;;7390190;19;20146;-71
2022/03/11 03:24:42;;;;;;;14.43;8.70;;;7.00;91.70;;;;;;7396031;19;20543;-73
2022/03/11 03:27:09;;;;;;;12.93;8.67;;;7.10;91.70;;;;;;7389365;19;20137;-74
2022/03/11 03:29:35;;;;;;;15.00;9.17;;;7.10;91.60;;;;;;7387949;19;20146;-73
2022/03/11 03:32:01;;;;;;;17.00;9.07;;;7.10;91.50;;;;;;7390441;19;20122;-74
2022/03/11 03:34:29;;;;;;;17.10;8.57;;;7.00;91.50;;;;;;7389232;19;20481;-73
2022/03/11 03:36:56;;;;;;;15.57;9.00;;;7.00;91.60;;;;;;7389064;19;20163;-73
2022/03/11 03:39:22;;;;;;;16.83;8.83;;;6.90;91.60;;;;;;7389107;19;20130;-73
2022/03/11 03:41:48;;;;;;;14.70;8.90;;;6.80;91.60;;;;;;7388626;19;20149;-74
2022/03/11 03:44:14;;;;;;;16.33;9.13;;;6.80;91.80;;;;;;7394547;19;20131;-72
2022/03/11 03:46:40;;;;;;;14.93;8.20;;;6.90;91.70;;;;;;7388575;19;20146;-74
2022/03/11 03:49:06;;;;;;;15.77;9.37;;;6.90;91.70;;;;;;7395373;19;20131;-74
2022/03/11 03:51:32;;;;;;;14.73;8.33;;;6.90;91.60;;;;;;7388584;19;20134;-74
2022/03/11 03:53:57;;;;;;;13.27;7.87;;;6.80;91.60;;;;;;7388398;19;20134;-72
2022/03/11 03:56:23;;;;;;;16.77;9.03;;;6.80;91.60;;;;;;7387087;19;20618;-73
2022/03/11 03:58:49;;;;;;;14.23;8.33;;;6.70;91.40;;;;;;7388276;19;20137;-73
2022/03/11 04:01:15;;;;;;;14.67;8.23;;;6.70;91.40;;;;;;7388579;19;20660;-73
2022/03/11 04:03:41;;;;;;;15.90;9.00;;;6.70;91.50;;;;;;7387893;19;20582;-74
2022/03/11 04:06:06;;;;;;;16.33;9.03;;;6.70;91.60;;;;;;7390351;19;20134;-73
2022/03/11 04:08:32;;;;;;;15.73;9.07;;;6.80;91.40;;;;;;7390592;19;20150;-74
2022/03/11 04:10:58;;;;;;;13.73;8.37;;;6.70;91.20;;;;;;7389232;19;20139;-72
2022/03/11 04:13:24;;;;;;;13.90;8.47;;;6.70;91.10;;;;;;7387447;19;20137;-73
2022/03/11 04:15:50;;;;;;;11.77;8.30;;;6.40;91.50;;;;;;7387243;19;20142;-74
2022/03/11 04:18:16;;;;;;;17.87;8.37;;;6.40;91.80;;;;;;7386629;19;20586;-73
2022/03/11 04:20:41;;;;;;;12.70;8.27;;;6.50;91.40;;;;;;7387433;19;20152;-74
2022/03/11 04:23:07;;;;;;;15.10;8.03;;;6.50;91.40;;;;;;7387252;19;20551;-74
2022/03/11 04:25:33;;;;;;;13.27;8.27;;;6.50;91.20;;;;;;7390408;19;20134;-73
2022/03/11 04:27:59;;;;;;;11.87;7.80;;;6.50;91.20;;;;;;7386850;19;20241;-73
2022/03/11 04:30:25;;;;;;;16.07;8.13;;;6.40;90.90;;;;;;7389457;19;20708;-72
2022/03/11 04:32:51;;;;;;;13.63;8.33;;;6.30;91.00;;;;;;7387023;19;20253;-73
2022/03/11 04:35:17;;;;;;;14.60;8.67;;;6.10;91.10;;;;;;7386718;19;20163;-73
2022/03/11 04:37:43;;;;;;;12.37;7.53;;;6.20;91.10;;;;;;7386661;19;20134;-74
2022/03/11 04:40:09;;;;;;;12.67;7.50;;;6.20;91.10;;;;;;7386578;19;20134;-74
2022/03/11 04:42:36;;;;;;;11.37;7.30;;;6.30;90.80;;;;;;7387966;19;20836;-74
2022/03/11 04:45:03;;;;;;;13.57;8.07;;;6.30;90.70;;;;;;7386174;19;20146;-73
2022/03/11 04:47:29;;;;;;;14.10;7.20;;;6.30;90.80;;;;;;7392812;19;20119;-72
2022/03/11 04:49:55;;;;;;;12.33;7.03;;;6.30;90.70;;;;;;7402674;19;20155;-74
2022/03/11 04:52:21;;;;;;;14.30;7.63;;;6.30;90.50;;;;;;7388466;19;20139;-72
2022/03/11 04:54:48;;;;;;;11.83;7.67;;;6.20;90.60;;;;;;7385910;19;20583;-74
2022/03/11 04:57:14;;;;;;;11.97;7.60;;;6.20;90.30;;;;;;7385831;19;20186;-72
2022/03/11 04:59:40;;;;;;;10.93;7.30;;;6.20;90.40;;;;;;7386114;19;20122;-75
2022/03/11 05:02:06;;;;;;;12.90;8.20;;;6.20;90.30;;;;;;7385624;19;20618;-74
2022/03/11 05:04:32;;;;;;;11.13;6.87;;;6.20;90.10;;;;;;7384220;19;20439;-73
2022/03/11 05:06:58;;;;;;;10.63;6.53;;;6.10;90.40;;;;;;7385941;19;20235;-72
2022/03/11 05:09:24;;;;;;;12.03;6.50;;;6.20;89.80;;;;;;7388283;19;20167;-73
2022/03/11 05:11:49;;;;;;;14.70;7.93;;;6.10;89.70;;;;;;7386811;19;20167;-73
2022/03/11 05:14:16;;;;;;;16.13;7.13;;;5.80;89.80;;;;;;7387223;19;20597;-74
2022/03/11 05:16:41;;;;;;;10.50;7.07;;;5.90;90.40;;;;;;7384482;19;20131;-72
2022/03/11 05:19:07;;;;;;;8.97;6.40;;;6.00;89.90;;;;;;7386946;19;20485;-73
2022/03/11 05:21:33;;;;;;;13.53;7.40;;;6.00;89.90;;;;;;7386468;19;20125;-74
2022/03/11 05:23:59;;;;;;;13.43;7.20;;;6.00;89.80;;;;;;7385392;19;20146;-72
2022/03/11 05:26:25;;;;;;;11.67;6.43;;;5.90;89.40;;;;;;7385651;19;20153;-74
2022/03/11 05:28:58;;;;;;;8.93;6.10;;;5.90;89.10;;;;;;7387853;19;20233;-72
2022/03/11 05:31:25;;;;;;;9.80;6.10;;;5.90;89.20;;;;;;7387681;19;20570;-74
2022/03/11 05:33:51;;;;;;;10.97;6.27;;;5.90;88.70;;;;;;7384679;19;20146;-72
2022/03/11 05:36:17;;;;;;;8.90;6.23;;;5.90;88.40;;;;;;7384142;19;20163;-73
2022/03/11 05:38:43;;;;;;;9.37;5.70;;;6.00;87.90;;;;;;7385390;19;20205;-72
2022/03/11 05:41:09;;;;;;;12.43;6.80;;;5.70;87.10;;;;;;7386067;19;20606;-75
2022/03/11 05:43:36;;;;;;;12.83;5.57;;;5.60;87.70;;;;;;7386656;19;20633;-72
2022/03/11 05:46:03;;;;;;;10.67;5.53;;;5.70;87.80;;;;;;7386924;19;20134;-74
2022/03/11 05:48:29;;;;;;;9.90;5.53;;;5.80;87.50;;;;;;7387340;19;20157;-74
2022/03/11 05:50:55;;;;;;;12.17;6.07;;;5.80;87.50;;;;;;7384684;19;20130;-72
2022/03/11 05:53:21;;;;;;;8.37;4.90;;;5.80;87.30;;;;;;7384458;19;20146;-74
2022/03/11 05:55:47;;;;;;;9.07;5.30;;;5.80;86.40;;;;;;7385786;19;20127;-72
2022/03/11 05:58:13;;;;;;;8.40;4.73;;;5.70;86.10;;;;;;7383890;19;20491;-73
2022/03/11 06:00:39;;;;;;;7.80;4.83;;;5.50;85.70;;;;;;7384817;19;20209;-74
2022/03/11 06:03:04;;;;;;;9.03;4.87;;;5.60;86.00;;;;;;7386990;19;20502;-72
2022/03/11 06:05:30;;;;;;;7.63;4.63;;;5.60;87.40;;;;;;7384197;19;20162;-73
2022/03/11 06:07:56;;;;;;;10.90;5.30;;;5.80;86.20;;;;;;7389149;19;20123;-72
2022/03/11 06:10:22;;;;;;;9.27;4.80;;;5.80;85.80;;;;;;7385954;19;20130;-73
2022/03/11 06:12:47;;;;;;;7.20;4.37;;;5.70;85.00;;;;;;7386124;19;20169;-73
2022/03/11 06:15:14;;;;;;;8.70;5.00;;;5.60;84.30;;;;;;7384681;19;20183;-72
2022/03/11 06:17:41;;;;;;;7.53;4.67;;;5.80;84.90;;;;;;7387716;19;20178;-73
2022/03/11 06:20:08;;;;;;;8.13;4.50;;;5.70;84.30;;;;;;7386568;19;20155;-72
2022/03/11 06:22:45;;;;;;;7.07;4.50;;;5.70;84.30;;;;;;7385357;19;20174;-72
2022/03/11 06:25:10;;;;;;;8.17;4.43;;;5.70;84.00;;;;;;7387750;19;20220;-72
2022/03/11 06:27:36;;;;;;;8.33;4.63;;;5.70;83.70;;;;;;7385793;19;20150;-69
2022/03/11 06:30:03;;;;;;;7.87;4.93;;;5.70;83.60;;;;;;7380394;19;20168;-72
2022/03/11 06:32:28;;;;;;;11.13;4.40;;;5.70;83.50;;;;;;7381124;19;20143;-72
2022/03/11 06:34:54;;;;;;;6.93;5.03;;;5.80;83.70;;;;;;7387969;19;20159;-71
2022/03/11 06:37:20;;;;;;;7.23;4.77;;;5.70;83.40;;;;;;7392285;19;20146;-72
2022/03/11 06:39:46;;;;;;;10.77;5.03;;;5.70;83.70;;;;;;7391250;19;20151;-71
2022/03/11 06:42:12;;;;;;;10.80;4.47;;;5.70;83.00;;;;;;7392106;19;20146;-71
2022/03/11 06:44:37;;;;;;;8.00;4.50;;;5.80;83.10;;;;;;7395454;19;20135;-72
2022/03/11 06:47:07;;;;;;;12.33;4.67;;;5.90;83.10;;;;;;7394005;19;20142;-72
2022/03/11 06:49:32;;;;;;;8.63;5.07;;;5.90;83.00;;;;;;7390962;19;20198;-72
2022/03/11 06:51:58;;;;;;;8.47;3.93;;;5.60;81.40;;;;;;7390261;19;20525;-71
2022/03/11 06:54:24;;;;;;;7.50;3.93;;;5.60;82.70;;;;;;7391645;19;20142;-70
2022/03/11 06:56:49;;;;;;;8.60;4.60;;;5.50;83.10;;;;;;7390654;19;20135;-72
2022/03/11 06:59:15;;;;;;;7.73;4.40;;;5.70;82.40;;;;;;7391360;19;20137;-70
2022/03/11 07:01:44;;;;;;;6.33;4.10;;;5.70;83.00;;;;;;7391063;19;20202;-72
2022/03/11 07:04:09;;;;;;;5.53;3.83;;;5.80;82.10;;;;;;7389889;19;20138;-71
2022/03/11 07:06:35;;;;;;;6.57;4.03;;;5.80;82.00;;;;;;7389395;19;20154;-71
2022/03/11 07:09:01;;;;;;;6.33;4.10;;;5.70;82.10;;;;;;7393015;19;20123;-73
2022/03/11 07:11:27;;;;;;;8.67;4.43;;;5.80;82.40;;;;;;7393361;19;20135;-72
2022/03/11 07:13:53;;;;;;;6.47;4.37;;;5.90;81.60;;;;;;7390735;19;20244;-71
2022/03/11 07:16:19;;;;;;;6.17;4.00;;;5.90;81.30;;;;;;7388236;19;20126;-71
2022/03/11 07:18:44;;;;;;;5.77;3.70;;;5.80;81.50;;;;;;7391273;19;20142;-72
2022/03/11 07:21:10;;;;;;;6.90;3.60;;;5.80;81.70;;;;;;7388661;19;20130;-72
2022/03/11 07:23:36;;;;;;;6.53;3.87;;;6.00;81.50;;;;;;7392872;19;20131;-72
2022/03/11 07:26:02;;;;;;;7.03;3.83;;;6.10;81.40;;;;;;7386009;19;20254;-71
2022/03/11 07:28:28;;;;;;;7.23;4.10;;;6.00;81.20;;;;;;7386027;19;20322;-71
2022/03/11 07:30:54;;;;;;;6.93;3.70;;;6.10;80.60;;;;;;7386907;19;20127;-72
2022/03/11 07:33:19;;;;;;;6.93;3.70;;;6.10;80.60;;;;;;7382763;19;20590;-72
2022/03/11 07:35:45;;;;;;;7.13;3.87;;;6.20;80.20;;;;;;7384840;19;20158;-72
2022/03/11 07:38:11;;;;;;;7.40;3.37;;;6.10;80.00;;;;;;7389103;19;20665;-73
2022/03/11 07:40:37;;;;;;;6.87;3.77;;;6.00;80.70;;;;;;7390269;19;20205;-73
2022/03/11 07:43:04;;;;;;;4.67;3.47;;;6.10;80.50;;;;;;7389349;19;20177;-72
2022/03/11 07:45:30;;;;;;;8.77;4.73;;;6.10;80.30;;;;;;7379818;19;20138;-73
2022/03/11 07:47:56;;;;;;;7.20;3.47;;;6.30;80.60;;;;;;7388076;19;20202;-73
2022/03/11 07:50:22;;;;;;;7.27;3.70;;;6.00;80.00;;;;;;7387003;19;20626;-72
2022/03/11 07:52:48;;;;;;;6.73;4.10;;;6.10;80.10;;;;;;7384102;19;20134;-73
2022/03/11 07:55:13;;;;;;;7.30;3.97;;;6.20;80.30;;;;;;7388664;19;20142;-72
2022/03/11 07:57:39;;;;;;;7.00;4.07;;;6.10;80.00;;;;;;7386718;19;20183;-73
2022/03/11 08:00:09;;;;;;;7.97;3.70;;;6.20;80.70;;;;;;7389051;19;20642;-72
2022/03/11 08:02:36;;;;;;;5.70;3.10;;;6.20;80.90;;;;;;7386070;19;20130;-73
2022/03/11 08:05:04;;;;;;;5.53;3.47;;;6.50;80.30;;;;;;7386440;19;20138;-73
2022/03/11 08:07:34;;;;;;;7.60;3.77;;;6.40;79.50;;;;;;7386844;19;20135;-71
2022/03/11 08:10:01;;;;;;;6.83;4.00;;;6.40;80.30;;;;;;7387313;19;20138;-73
2022/03/11 08:12:27;;;;;;;7.83;4.70;;;6.60;81.30;;;;;;7383936;19;20137;-73
2022/03/11 08:14:57;;;;;;;6.67;3.93;;;6.50;81.20;;;;;;7381837;19;20127;-73
2022/03/11 08:17:24;;;;;;;7.00;4.53;;;6.60;82.20;;;;;;7385636;19;20863;-72
2022/03/11 08:19:50;;;;;;;11.07;5.00;;;6.70;81.20;;;;;;7386615;19;20139;-73
2022/03/11 08:22:15;;;;;;;7.37;4.23;;;6.90;81.10;;;;;;7386232;19;20270;-72
2022/03/11 08:24:41;;;;;;;8.17;4.77;;;7.00;81.80;;;;;;7385170;19;20157;-73
2022/03/11 08:27:11;;;;;;;9.77;4.43;;;7.00;81.70;;;;;;7385160;19;20222;-74
2022/03/11 08:29:38;;;;;;;9.70;4.63;;;7.10;81.80;;;;;;7384289;19;20641;-72
2022/03/11 08:32:06;;;;;;;8.40;4.83;;;7.10;81.60;;;;;;7385857;19;20148;-72
2022/03/11 08:34:32;;;;;;;7.73;4.93;;;7.20;81.50;;;;;;7384593;19;20175;-72
2022/03/11 08:36:58;;;;;;;7.87;4.60;;;7.20;81.50;;;;;;7383051;19;20517;-72
2022/03/11 08:39:24;;;;;;;9.83;5.83;;;7.10;81.20;;;;;;7383756;19;20166;-72
2022/03/11 08:41:50;;;;;;;8.73;6.20;;;7.20;81.00;;;;;;7385790;19;20158;-71
2022/03/11 08:44:16;;;;;;;10.03;5.20;;;7.30;80.40;;;;;;7388010;19;20532;-73
2022/03/11 08:46:42;;;;;;;7.80;4.07;;;7.20;79.10;;;;;;7386116;19;20171;-71
2022/03/11 08:49:09;;;;;;;7.40;4.17;;;7.20;79.60;;;;;;7387855;19;20149;-71
2022/03/11 08:51:35;;;;;;;6.90;4.00;;;7.30;79.10;;;;;;7388662;19;20214;-72
2022/03/11 08:54:02;;;;;;;8.73;4.80;;;7.30;79.50;;;;;;7387053;19;20618;-72
2022/03/11 08:56:28;;;;;;;8.40;4.77;;;7.40;79.20;;;;;;7385414;19;20138;-72
2022/03/11 08:58:53;;;;;;;7.87;4.20;;;7.60;78.50;;;;;;7384491;19;20551;-73
2022/03/11 09:01:20;;;;;;;6.73;4.20;;;7.60;78.20;;;;;;7385439;19;20158;-72
2022/03/11 09:03:46;;;;;;;7.77;4.40;;;7.50;78.90;;;;;;7388255;19;20135;-71
2022/03/11 09:06:12;;;;;;;8.57;4.17;;;7.50;78.80;;;;;;7384888;19;20586;-75
2022/03/11 09:08:38;;;;;;;7.37;4.33;;;7.80;78.60;;;;;;7386845;19;20242;-71
2022/03/11 09:11:05;;;;;;;7.77;4.63;;;7.90;78.60;;;;;;7384825;19;20146;-72
2022/03/11 09:13:31;;;;;;;11.57;4.40;;;8.00;78.10;;;;;;7385679;19;20147;-72
2022/03/11 09:15:56;;;;;;;5.47;4.03;;;8.00;79.00;;;;;;7384860;19;20141;-72
2022/03/11 09:18:22;;;;;;;8.20;4.60;;;8.30;77.90;;;;;;7385342;19;20218;-72
2022/03/11 09:20:50;;;;;;;7.87;4.53;;;8.30;78.00;;;;;;7384865;19;20646;-72
2022/03/11 09:23:16;;;;;;;7.17;4.40;;;8.50;77.60;;;;;;7383475;19;20163;-72
2022/03/11 09:25:41;;;;;;;10.20;5.60;;;8.60;77.00;;;;;;7382454;19;20143;-71
2022/03/11 09:28:07;;;;;;;9.73;5.00;;;8.60;76.90;;;;;;7383158;19;20181;-72
2022/03/11 09:30:33;;;;;;;8.03;4.73;;;8.70;77.80;;;;;;7385594;19;20525;-72
2022/03/11 09:32:59;;;;;;;7.40;4.33;;;8.90;77.20;;;;;;7384516;19;20689;-72
2022/03/11 09:35:25;;;;;;;7.53;4.83;;;8.90;77.10;;;;;;7386470;19;20142;-73
2022/03/11 09:37:51;;;;;;;9.63;6.03;;;9.20;76.40;;;;;;7382839;19;20262;-72
2022/03/11 09:40:17;;;;;;;8.67;4.77;;;9.10;76.30;;;;;;7385698;19;20138;-72
2022/03/11 09:42:44;;;;;;;9.07;4.27;;;9.10;76.20;;;;;;7383342;19;20145;-72
2022/03/11 09:45:10;;;;;;;8.03;4.43;;;9.10;76.40;;;;;;7382736;19;20144;-71
2022/03/11 09:47:39;;;;;;;7.67;4.20;;;9.10;76.50;;;;;;7383498;19;20158;-73
2022/03/11 09:50:06;;;;;;;7.47;4.87;;;9.30;76.40;;;;;;7384219;19;20146;-72
2022/03/11 09:52:36;;;;;;;8.30;5.50;;;9.40;76.40;;;;;;7384957;19;20167;-73
2022/03/11 09:55:01;;;;;;;8.77;5.47;;;9.70;75.90;;;;;;7382967;19;20142;-72
2022/03/11 09:57:28;;;;;;;7.97;4.67;;;9.80;76.10;;;;;;7383245;19;20150;-72
2022/03/11 09:59:54;;;;;;;7.30;4.93;;;9.80;75.50;;;;;;7384612;19;20153;-71
2022/03/11 10:02:19;;;;;;;8.57;4.90;;;9.70;75.20;;;;;;7385118;19;20142;-72
2022/03/11 10:04:50;;;;;;;7.00;4.30;;;9.80;75.50;;;;;;7384504;19;20142;-72
2022/03/11 10:07:27;;;;;;;7.83;4.80;;;9.90;75.90;;;;;;7384314;19;20597;-72
2022/03/11 10:09:55;;;;;;;8.17;5.17;;;10.10;76.00;;;;;;7384317;19;20535;-71
2022/03/11 10:12:22;;;;;;;7.23;4.50;;;10.10;75.40;;;;;;7383879;19;20158;-72
2022/03/11 10:15:01;;;;;;;8.97;5.13;;;10.20;76.30;;;;;;7384227;19;20151;-73
2022/03/11 10:17:37;;;;;;;9.20;4.80;;;10.30;76.20;;;;;;7385128;19;20146;-73
2022/03/11 10:20:06;;;;;;;7.47;4.90;;;10.50;75.20;;;;;;7386029;19;20154;-72
2022/03/11 10:22:33;;;;;;;9.67;6.07;;;10.60;75.80;;;;;;7385426;19;20151;-71
2022/03/11 10:25:06;;;;;;;13.63;6.23;;;10.80;75.50;;;;;;7386228;19;20602;-72
2022/03/11 10:27:33;;;;;;;11.17;6.20;;;10.90;74.90;;;;;;7382557;19;20158;-72
2022/03/11 10:30:14;;;;;;;11.47;5.37;;;10.90;74.90;;;;;;7384219;19;20210;-73
2022/03/11 10:32:49;;;;;;;12.47;5.40;;;10.90;74.90;;;;;;7386106;19;20142;-72
2022/03/11 10:35:18;;;;;;;8.93;5.43;;;11.00;75.00;;;;;;7383789;19;20167;-73
2022/03/11 10:38:07;;;;;;;9.17;5.17;;;11.00;74.50;;;;;;7383803;19;20146;-72
2022/03/11 10:40:35;;;;;;;10.13;5.37;;;11.00;75.30;;;;;;7383103;19;20154;-73
2022/03/11 10:43:18;;;;;;;9.00;5.30;;;11.10;74.80;;;;;;7384199;19;20138;-72
2022/03/11 10:45:57;;;;;;;7.87;5.20;;;11.20;74.10;;;;;;7384342;19;20504;-72
2022/03/11 10:48:48;;;;;;;8.73;4.93;;;11.30;74.00;;;;;;7382781;19;20142;-73
2022/03/11 10:51:33;;;;;;;6.90;5.20;;;11.30;73.70;;;;;;7381636;19;20139;-73
2022/03/11 10:54:00;;;;;;;6.37;4.63;;;11.30;74.40;;;;;;7384927;19;20139;-73
2022/03/11 10:56:35;;;;;;;7.73;4.90;;;11.50;74.00;;;;;;7384005;19;20721;-74
2022/03/11 10:59:05;;;;;;;7.83;4.90;;;11.50;73.10;;;;;;7383932;19;20524;-72
2022/03/11 11:01:42;;;;;;;8.10;5.37;;;11.40;73.30;;;;;;7383565;19;20143;-74
2022/03/11 11:04:11;;;;;;;8.50;5.00;;;11.40;73.40;;;;;;7384299;19;20165;-74
2022/03/11 11:06:38;;;;;;;9.37;5.37;;;11.50;73.60;;;;;;7379776;19;20145;-72
2022/03/11 11:09:07;;;;;;;8.77;5.33;;;11.40;73.30;;;;;;7386663;19;20844;-71
2022/03/11 11:11:34;;;;;;;8.80;5.20;;;11.40;74.40;;;;;;7387251;19;20135;-73
2022/03/11 11:14:04;;;;;;;8.03;4.67;;;11.60;73.50;;;;;;7383427;19;20149;-73
2022/03/11 11:16:31;;;;;;;10.07;5.13;;;11.80;72.60;;;;;;7380998;19;20142;-73
2022/03/11 11:18:58;;;;;;;7.47;5.10;;;11.80;72.80;;;;;;7383161;19;20523;-72
2022/03/11 11:21:25;;;;;;;9.03;5.60;;;11.90;72.40;;;;;;7386413;19;20159;-72
2022/03/11 11:23:58;;;;;;;8.17;5.10;;;11.80;72.40;;;;;;7390633;19;20162;-72
2022/03/11 11:26:25;;;;;;;10.10;5.40;;;11.70;72.60;;;;;;7390032;19;20481;-72
2022/03/11 11:29:00;;;;;;;9.97;5.37;;;11.70;72.90;;;;;;7391976;19;20174;-72
2022/03/11 11:31:26;;;;;;;8.40;5.23;;;11.70;72.60;;;;;;7389842;19;20158;-73
2022/03/11 11:33:52;;;;;;;8.20;5.13;;;11.70;72.70;;;;;;7390949;19;20151;-72
2022/03/11 11:36:38;;;;;;;7.83;5.07;;;11.80;73.70;;;;;;7389082;19;20155;-71
2022/03/11 11:39:06;;;;;;;9.10;5.50;;;11.70;73.30;;;;;;7388575;19;20138;-73
2022/03/11 11:41:34;;;;;;;8.97;5.20;;;11.90;72.90;;;;;;7390641;19;20169;-73
2022/03/11 11:44:05;;;;;;;9.37;5.30;;;12.00;72.80;;;;;;7392683;19;20153;-73
2022/03/11 11:46:35;;;;;;;9.80;5.53;;;12.00;72.60;;;;;;7390587;19;20169;-73
2022/03/11 11:49:09;;;;;;;9.80;5.47;;;12.20;72.60;;;;;;7392703;19;20138;-73
2022/03/11 11:51:35;;;;;;;8.77;5.73;;;12.30;72.10;;;;;;7389583;19;20528;-72
2022/03/11 11:54:09;;;;;;;9.30;5.73;;;12.30;72.50;;;;;;7388963;19;20175;-73
2022/03/11 11:56:42;;;;;;;6.50;4.73;;;12.40;72.30;;;;;;7388354;19;20610;-72
2022/03/11 11:59:15;;;;;;;8.00;5.20;;;12.50;71.70;;;;;;7390601;19;20510;-75
2022/03/11 12:01:42;;;;;;;9.30;5.37;;;12.40;72.10;;;;;;7391368;19;20264;-73
2022/03/11 12:04:21;;;;;;;8.80;5.67;;;12.30;72.40;;;;;;7387603;19;20201;-71
2022/03/11 12:07:14;;;;;;;9.23;5.77;;;12.40;72.20;;;;;;7388952;19;20145;-73
2022/03/11 12:12:21;;;;;;;8.77;6.00;;;12.60;72.50;;;;;;7390142;19;20630;-72
2022/03/11 12:14:58;;;;;;;8.33;5.33;;;12.60;72.20;;;;;;7391490;19;20210;-73
2022/03/11 12:17:39;;;;;;;9.37;4.83;;;12.70;72.10;;;;;;7387162;19;20201;-73
2022/03/11 12:20:24;;;;;;;7.93;5.40;;;12.80;72.30;;;;;;7393034;19;20138;-73
2022/03/11 12:22:54;;;;;;;9.90;5.63;;;13.00;72.00;;;;;;7390107;19;20147;-72
2022/03/11 12:25:41;;;;;;;12.03;5.93;;;13.00;72.00;;;;;;7389226;19;20153;-72
2022/03/11 12:28:13;;;;;;;10.23;5.83;;;13.20;71.90;;;;;;7385311;19;20193;-72
2022/03/11 12:30:48;;;;;;;6.73;5.10;;;13.40;71.50;;;;;;7388118;19;20503;-73
2022/03/11 12:33:19;;;;;;;8.83;5.90;;;13.30;71.70;;;;;;7389445;19;20147;-72
2022/03/11 12:35:51;;;;;;;8.77;5.40;;;13.40;71.20;;;;;;7392745;19;20163;-73
2022/03/11 12:38:19;;;;;;;8.40;5.40;;;13.40;71.30;;;;;;7387298;19;20260;-73
2022/03/11 12:40:49;;;;;;;11.30;6.13;;;13.30;71.30;;;;;;7390642;19;20489;-72
2022/03/11 12:43:17;;;;;;;8.40;5.30;;;13.20;71.60;;;;;;7388051;19;20200;-73
2022/03/11 12:45:51;;;;;;;8.93;5.60;;;13.40;72.40;;;;;;7388398;19;20156;-74
2022/03/11 12:48:23;;;;;;;9.00;5.60;;;13.60;71.50;;;;;;7387823;19;20150;-74
2022/03/11 12:50:50;;;;;;;8.77;5.70;;;13.80;70.80;;;;;;7385845;19;20207;-74
2022/03/11 12:53:17;;;;;;;7.10;5.40;;;13.80;71.10;;;;;;7387793;19;20217;-74
2022/03/11 12:55:48;;;;;;;9.70;5.87;;;13.90;71.00;;;;;;7386649;19;20131;-73